Terminal Aerodrome Forecast
Issued by NWS

Home | Current Version | Previous Version | Text Only | Print | Product List | Glossary On
Versions: 1 2 3 4 5 6 7 8 9 10 11 12 13 14 15 16 17 18 19 20 21
213
FTUS44 KLZK 302200 AAA
TAFPBF
TAF AMD
KPBF 302200Z 3022/3118 20006KT P6SM VCTS SCT025 BKN050CB BKN250
      TEMPO 3022/3101 VRB15G35KT 2SM TSRA BR BKN030CB OVC100
     FM310100 23004KT P6SM VCSH SCT040 SCT100 BKN250
     FM310900 23002KT P6SM FEW008 SCT015
      TEMPO 3111/3114 5SM BR BKN015
     FM311500 21005KT P6SM SCT020 BKN035=

USA.gov is the U.S. government's official web portal to all federal, state and local government web resources and services.